Terminal Aerodrome Forecast
Issued by NWS Tuscon, AZ

Home | Current Version | Previous Version | Text Only | Print | Product List | Glossary On
Versions: 1 2 3 4 5 6 7 8 9 10 11 12
000
FTUS45 KTWC 030523
TAFDUG
TAF
KDUG 030523Z 0306/0406 36006KT P6SM SCT100 OVC200
     FM031200 VRB05KT P6SM SCT250
     FM032100 30006KT P6SM VCTS SCT080CB BKN180
     FM040100 34007KT P6SM SCT080 BKN180
     FM040500 VRB05KT P6SM SCT200=

USA.gov is the U.S. government's official web portal to all federal, state and local government web resources and services.